Time,TemperatureF,DewpointF,PressureIn,WindDirection,WindDirectionDegrees,WindSpeedMPH,WindSpeedGustMPH,Humidity,HourlyPrecipIn,Conditions,Clouds,dailyrainin,SolarRadiationWatts/m^2,SoftwareType,DateUTC
2013-01-07 00:22:00,34.0,28.0,-100.00,WSW,253,2.0,8.0,80,0.00,,,0.00,1.000000,,2013-01-07 05:22:00,
2013-01-07 00:33:00,34.0,28.0,-100.00,WSW,253,2.0,8.0,80,0.00,,,0.00,1.000000,,2013-01-07 05:33:00,
2013-01-07 00:43:00,34.0,28.0,-100.00,WSW,253,2.0,8.0,80,0.00,,,0.00,1.000000,,2013-01-07 05:43:00,
2013-01-07 00:52:00,34.0,28.0,-100.00,WSW,253,2.0,8.0,80,0.00,,,0.00,1.000000,,2013-01-07 05:52:00,
2013-01-07 01:22:00,36.0,29.0,-100.00,West,272,3.0,8.0,77,0.00,,,0.00,1.000000,,2013-01-07 06:22:00,
2013-01-07 01:32:00,36.0,29.0,-100.00,West,272,3.0,8.0,77,0.00,,,0.00,1.000000,,2013-01-07 06:32:00,
2013-01-07 01:42:00,36.0,29.0,-100.00,West,272,3.0,8.0,77,0.00,,,0.00,1.000000,,2013-01-07 06:42:00,
2013-01-07 01:52:00,36.0,29.0,-100.00,West,272,3.0,8.0,77,0.00,,,0.00,1.000000,,2013-01-07 06:52:00,
2013-01-07 02:22:00,36.0,29.0,-100.00,WNW,284,3.0,11.0,75,0.00,,,0.00,1.000000,,2013-01-07 07:22:00,
2013-01-07 02:33:00,36.0,29.0,-100.00,WNW,284,3.0,11.0,75,0.00,,,0.00,1.000000,,2013-01-07 07:33:00,
2013-01-07 02:42:00,36.0,29.0,-100.00,WNW,284,3.0,11.0,75,0.00,,,0.00,1.000000,,2013-01-07 07:42:00,
2013-01-07 02:52:00,36.0,29.0,-100.00,WNW,284,3.0,11.0,75,0.00,,,0.00,1.000000,,2013-01-07 07:52:00,
2013-01-07 03:22:00,36.0,30.0,-100.00,West,263,4.0,9.0,78,0.00,,,0.00,1.000000,,2013-01-07 08:22:00,
2013-01-07 03:33:00,36.0,30.0,-100.00,West,263,4.0,9.0,78,0.00,,,0.00,1.000000,,2013-01-07 08:33:00,
2013-01-07 03:43:00,36.0,30.0,-100.00,West,263,4.0,9.0,78,0.00,,,0.00,1.000000,,2013-01-07 08:43:00,
2013-01-07 03:52:00,36.0,30.0,-100.00,West,263,4.0,9.0,78,0.00,,,0.00,1.000000,,2013-01-07 08:52:00,
2013-01-07 04:23:00,36.0,30.0,-100.00,WSW,253,4.0,11.0,78,0.00,,,0.00,1.000000,,2013-01-07 09:23:00,
2013-01-07 04:32:00,36.0,30.0,-100.00,WSW,253,4.0,11.0,78,0.00,,,0.00,1.000000,,2013-01-07 09:32:00,
2013-01-07 04:42:00,36.0,30.0,-100.00,WSW,253,4.0,11.0,78,0.00,,,0.00,1.000000,,2013-01-07 09:42:00,
2013-01-07 04:52:00,36.0,30.0,-100.00,WSW,253,4.0,11.0,78,0.00,,,0.00,1.000000,,2013-01-07 09:52:00,
2013-01-07 05:22:00,35.0,29.0,-100.00,WSW,249,4.0,14.0,79,0.00,,,0.00,1.000000,,2013-01-07 10:22:00,
2013-01-07 05:33:00,35.0,29.0,-100.00,WSW,249,4.0,14.0,79,0.00,,,0.00,1.000000,,2013-01-07 10:33:00,
2013-01-07 05:42:00,35.0,29.0,-100.00,WSW,249,4.0,14.0,79,0.00,,,0.00,1.000000,,2013-01-07 10:42:00,
2013-01-07 05:52:00,35.0,29.0,-100.00,WSW,249,4.0,14.0,79,0.00,,,0.00,1.000000,,2013-01-07 10:52:00,
2013-01-07 06:23:00,35.0,29.0,-100.00,WSW,254,5.0,11.0,79,0.00,,,0.00,1.000000,,2013-01-07 11:23:00,
2013-01-07 06:33:00,35.0,29.0,-100.00,WSW,254,5.0,11.0,79,0.00,,,0.00,1.000000,,2013-01-07 11:33:00,
2013-01-07 06:43:00,35.0,29.0,-100.00,WSW,254,5.0,11.0,79,0.00,,,0.00,1.000000,,2013-01-07 11:43:00,
2013-01-07 06:53:00,35.0,29.0,-100.00,WSW,254,5.0,11.0,79,0.00,,,0.00,1.000000,,2013-01-07 11:53:00,
2013-01-07 07:23:00,35.0,30.0,-100.00,WSW,256,5.0,11.0,81,0.00,,,0.00,1.000000,,2013-01-07 12:23:00,
2013-01-07 07:33:00,35.0,30.0,-100.00,WSW,256,5.0,11.0,81,0.00,,,0.00,1.000000,,2013-01-07 12:33:00,
2013-01-07 07:43:00,35.0,30.0,-100.00,WSW,256,5.0,11.0,81,0.00,,,0.00,1.000000,,2013-01-07 12:43:00,
2013-01-07 07:52:00,35.0,30.0,-100.00,WSW,256,5.0,11.0,81,0.00,,,0.00,1.000000,,2013-01-07 12:52:00,
2013-01-07 08:23:00,35.0,30.0,-100.00,WSW,244,5.0,10.0,83,0.00,,,0.00,3.000000,,2013-01-07 13:23:00,
2013-01-07 08:33:00,35.0,30.0,-100.00,WSW,244,5.0,10.0,83,0.00,,,0.00,3.000000,,2013-01-07 13:33:00,
2013-01-07 08:43:00,35.0,30.0,-100.00,WSW,244,5.0,10.0,83,0.00,,,0.00,3.000000,,2013-01-07 13:43:00,
2013-01-07 08:53:00,35.0,30.0,-100.00,WSW,244,5.0,10.0,83,0.00,,,0.00,3.000000,,2013-01-07 13:53:00,
2013-01-07 09:23:00,35.0,30.0,-100.00,West,265,2.0,13.0,83,0.00,,,0.00,18.000000,,2013-01-07 14:23:00,
2013-01-07 09:33:00,35.0,30.0,-100.00,West,265,2.0,13.0,83,0.00,,,0.00,18.000000,,2013-01-07 14:33:00,
2013-01-07 09:43:00,35.0,30.0,-100.00,West,265,2.0,13.0,83,0.00,,,0.00,18.000000,,2013-01-07 14:43:00,
2013-01-07 09:53:00,35.0,30.0,-100.00,West,265,2.0,13.0,83,0.00,,,0.00,18.000000,,2013-01-07 14:53:00,
2013-01-07 10:23:00,37.0,31.0,-100.00,SSW,211,3.0,8.0,78,0.00,,,0.00,80.000000,,2013-01-07 15:23:00,
2013-01-07 10:33:00,37.0,31.0,-100.00,SSW,211,3.0,8.0,78,0.00,,,0.00,80.000000,,2013-01-07 15:33:00,
2013-01-07 10:43:00,37.0,31.0,-100.00,SSW,211,3.0,8.0,78,0.00,,,0.00,80.000000,,2013-01-07 15:43:00,
2013-01-07 10:53:00,37.0,31.0,-100.00,SSW,211,3.0,8.0,78,0.00,,,0.00,80.000000,,2013-01-07 15:53:00,
2013-01-07 11:23:00,37.0,30.0,-100.00,West,271,3.0,10.0,76,0.00,,,0.00,112.000000,,2013-01-07 16:23:00,
2013-01-07 11:33:00,37.0,30.0,-100.00,West,271,3.0,10.0,76,0.00,,,0.00,112.000000,,2013-01-07 16:33:00,
2013-01-07 11:43:00,37.0,30.0,-100.00,West,271,3.0,10.0,76,0.00,,,0.00,112.000000,,2013-01-07 16:43:00,
2013-01-07 11:53:00,37.0,30.0,-100.00,West,271,3.0,10.0,76,0.00,,,0.00,112.000000,,2013-01-07 16:53:00,
2013-01-07 12:23:00,38.0,30.0,-100.00,WSW,252,4.0,10.0,73,0.00,,,0.00,160.000000,,2013-01-07 17:23:00,
2013-01-07 12:33:00,38.0,30.0,-100.00,WSW,252,4.0,10.0,73,0.00,,,0.00,160.000000,,2013-01-07 17:33:00,
2013-01-07 12:42:00,38.0,30.0,-100.00,WSW,252,4.0,10.0,73,0.00,,,0.00,160.000000,,2013-01-07 17:42:00,
2013-01-07 12:53:00,38.0,30.0,-100.00,WSW,252,4.0,10.0,73,0.00,,,0.00,160.000000,,2013-01-07 17:53:00,
2013-01-07 13:23:00,38.0,29.0,-100.00,WSW,249,4.0,11.0,69,0.00,,,0.00,192.000000,,2013-01-07 18:23:00,
2013-01-07 13:33:00,38.0,29.0,-100.00,WSW,249,4.0,11.0,69,0.00,,,0.00,192.000000,,2013-01-07 18:33:00,
2013-01-07 13:43:00,38.0,29.0,-100.00,WSW,249,4.0,11.0,69,0.00,,,0.00,192.000000,,2013-01-07 18:43:00,
2013-01-07 13:52:00,38.0,29.0,-100.00,WSW,249,4.0,11.0,69,0.00,,,0.00,192.000000,,2013-01-07 18:52:00,
2013-01-07 14:23:00,38.0,28.0,-100.00,West,259,3.0,9.0,68,0.00,,,0.00,156.000000,,2013-01-07 19:23:00,
2013-01-07 14:33:00,38.0,28.0,-100.00,West,259,3.0,9.0,68,0.00,,,0.00,156.000000,,2013-01-07 19:33:00,
2013-01-07 14:43:00,38.0,28.0,-100.00,West,259,3.0,9.0,68,0.00,,,0.00,156.000000,,2013-01-07 19:43:00,
2013-01-07 14:53:00,38.0,28.0,-100.00,West,259,3.0,9.0,68,0.00,,,0.00,156.000000,,2013-01-07 19:53:00,
2013-01-07 15:23:00,38.0,26.0,-100.00,WSW,245,5.0,10.0,61,0.00,,,0.00,134.000000,,2013-01-07 20:23:00,
2013-01-07 15:33:00,38.0,26.0,-100.00,WSW,245,5.0,10.0,61,0.00,,,0.00,134.000000,,2013-01-07 20:33:00,
2013-01-07 15:43:00,38.0,26.0,-100.00,WSW,245,5.0,10.0,61,0.00,,,0.00,134.000000,,2013-01-07 20:43:00,
2013-01-07 15:52:00,38.0,26.0,-100.00,WSW,245,5.0,10.0,61,0.00,,,0.00,134.000000,,2013-01-07 20:52:00,
2013-01-07 16:23:00,37.0,26.0,-100.00,WSW,240,4.0,10.0,63,0.00,,,0.00,85.000000,,2013-01-07 21:23:00,
2013-01-07 16:33:00,37.0,26.0,-100.00,WSW,240,4.0,10.0,63,0.00,,,0.00,85.000000,,2013-01-07 21:33:00,
2013-01-07 16:43:00,37.0,26.0,-100.00,WSW,240,4.0,10.0,63,0.00,,,0.00,85.000000,,2013-01-07 21:43:00,
2013-01-07 16:53:00,37.0,26.0,-100.00,WSW,240,4.0,10.0,63,0.00,,,0.00,85.000000,,2013-01-07 21:53:00,
2013-01-07 17:23:00,33.0,28.0,-100.00,SSW,205,2.0,6.0,80,0.00,,,0.00,31.000000,,2013-01-07 22:23:00,
2013-01-07 17:33:00,33.0,28.0,-100.00,SSW,205,2.0,6.0,80,0.00,,,0.00,31.000000,,2013-01-07 22:33:00,
2013-01-07 17:43:00,33.0,28.0,-100.00,SSW,205,2.0,6.0,80,0.00,,,0.00,31.000000,,2013-01-07 22:43:00,
2013-01-07 17:53:00,33.0,28.0,-100.00,SSW,205,2.0,6.0,80,0.00,,,0.00,31.000000,,2013-01-07 22:53:00,
2013-01-07 18:23:00,29.0,26.0,-100.00,SW,218,0.0,2.0,88,0.00,,,0.00,2.000000,,2013-01-07 23:23:00,
2013-01-07 18:33:00,29.0,26.0,-100.00,SW,218,0.0,2.0,88,0.00,,,0.00,2.000000,,2013-01-07 23:33:00,
2013-01-07 18:43:00,29.0,26.0,-100.00,SW,218,0.0,2.0,88,0.00,,,0.00,2.000000,,2013-01-07 23:43:00,
2013-01-07 18:53:00,29.0,26.0,-100.00,SW,218,0.0,2.0,88,0.00,,,0.00,2.000000,,2013-01-07 23:53:00,
2013-01-07 19:23:00,28.0,27.0,-100.00,WNW,286,1.0,5.0,94,0.00,,,0.00,1.000000,,2013-01-08 00:23:00,
2013-01-07 19:33:00,28.0,27.0,-100.00,WNW,286,1.0,5.0,94,0.00,,,0.00,1.000000,,2013-01-08 00:33:00,
2013-01-07 19:42:00,28.0,27.0,-100.00,WNW,286,1.0,5.0,94,0.00,,,0.00,1.000000,,2013-01-08 00:42:00,
2013-01-07 19:52:00,28.0,27.0,-100.00,WNW,286,1.0,5.0,94,0.00,,,0.00,1.000000,,2013-01-08 00:52:00,
2013-01-07 20:22:00,27.0,26.0,-100.00,SSW,207,1.0,4.0,96,0.00,,,0.00,1.000000,,2013-01-08 01:22:00,
2013-01-07 20:33:00,27.0,26.0,-100.00,SSW,207,1.0,4.0,96,0.00,,,0.00,1.000000,,2013-01-08 01:33:00,
2013-01-07 20:42:00,27.0,26.0,-100.00,SSW,207,1.0,4.0,96,0.00,,,0.00,1.000000,,2013-01-08 01:42:00,
2013-01-07 20:52:00,27.0,26.0,-100.00,SSW,207,1.0,4.0,96,0.00,,,0.00,1.000000,,2013-01-08 01:52:00,
2013-01-07 21:23:00,27.0,26.0,-100.00,ESE,104,3.0,5.0,95,0.00,,,0.00,1.000000,,2013-01-08 02:23:00,
2013-01-07 21:33:00,27.0,26.0,-100.00,ESE,104,3.0,5.0,95,0.00,,,0.00,1.000000,,2013-01-08 02:33:00,
2013-01-07 21:42:00,27.0,26.0,-100.00,ESE,104,3.0,5.0,95,0.00,,,0.00,1.000000,,2013-01-08 02:42:00,
2013-01-07 21:53:00,27.0,26.0,-100.00,ESE,104,3.0,5.0,95,0.00,,,0.00,1.000000,,2013-01-08 02:53:00,
2013-01-07 22:22:00,25.0,24.0,-100.00,SW,215,1.0,4.0,97,0.00,,,0.00,1.000000,,2013-01-08 03:22:00,
2013-01-07 22:33:00,25.0,24.0,-100.00,SW,215,1.0,4.0,97,0.00,,,0.00,1.000000,,2013-01-08 03:33:00,
2013-01-07 22:43:00,25.0,24.0,-100.00,SW,215,1.0,4.0,97,0.00,,,0.00,1.000000,,2013-01-08 03:43:00,
2013-01-07 22:52:00,25.0,24.0,-100.00,SW,215,1.0,4.0,97,0.00,,,0.00,1.000000,,2013-01-08 03:52:00,
2013-01-07 23:22:00,25.0,24.0,-100.00,SSW,202,0.0,7.0,96,0.00,,,0.00,1.000000,,2013-01-08 04:22:00,
2013-01-07 23:32:00,25.0,24.0,-100.00,SSW,202,0.0,7.0,96,0.00,,,0.00,1.000000,,2013-01-08 04:32:00,
2013-01-07 23:42:00,25.0,24.0,-100.00,SSW,202,0.0,7.0,96,0.00,,,0.00,1.000000,,2013-01-08 04:42:00,
2013-01-07 23:52:00,25.0,24.0,-100.00,SSW,202,0.0,7.0,96,0.00,,,0.00,1.000000,,2013-01-08 04:52:00,